sensor_id;sensor_type;location;lat;lon;timestamp;temperature;humidity
21387;DHT22;10854;45.922;6.716;2023-04-24T00:00:41;8.40;99.90
21387;DHT22;10854;45.922;6.716;2023-04-24T00:03:12;8.40;99.90
21387;DHT22;10854;45.922;6.716;2023-04-24T00:05:43;8.40;99.90
21387;DHT22;10854;45.922;6.716;2023-04-24T00:08:11;8.40;99.90
21387;DHT22;10854;45.922;6.716;2023-04-24T00:10:40;8.40;99.90
21387;DHT22;10854;45.922;6.716;2023-04-24T00:13:14;8.40;99.90
21387;DHT22;10854;45.922;6.716;2023-04-24T00:15:48;8.40;99.90
21387;DHT22;10854;45.922;6.716;2023-04-24T00:18:19;8.40;99.90
21387;DHT22;10854;45.922;6.716;2023-04-24T00:20:49;8.40;99.90
21387;DHT22;10854;45.922;6.716;2023-04-24T00:23:20;8.40;99.90
21387;DHT22;10854;45.922;6.716;2023-04-24T00:25:59;8.40;99.90
21387;DHT22;10854;45.922;6.716;2023-04-24T00:28:51;8.40;99.90
21387;DHT22;10854;45.922;6.716;2023-04-24T00:31:20;8.40;99.90
21387;DHT22;10854;45.922;6.716;2023-04-24T00:33:48;8.40;99.90
21387;DHT22;10854;45.922;6.716;2023-04-24T00:36:16;8.30;99.90
21387;DHT22;10854;45.922;6.716;2023-04-24T00:38:46;8.30;99.90
21387;DHT22;10854;45.922;6.716;2023-04-24T00:41:15;8.30;99.90
21387;DHT22;10854;45.922;6.716;2023-04-24T00:43:43;8.20;99.90
21387;DHT22;10854;45.922;6.716;2023-04-24T00:46:13;8.20;99.90
21387;DHT22;10854;45.922;6.716;2023-04-24T00:48:44;8.20;99.90
21387;DHT22;10854;45.922;6.716;2023-04-24T00:51:16;8.20;99.90
21387;DHT22;10854;45.922;6.716;2023-04-24T00:54:04;8.20;99.90
21387;DHT22;10854;45.922;6.716;2023-04-24T00:56:34;8.20;99.90
21387;DHT22;10854;45.922;6.716;2023-04-24T00:59:23;8.20;99.90
21387;DHT22;10854;45.922;6.716;2023-04-24T01:01:51;8.20;99.90
21387;DHT22;10854;45.922;6.716;2023-04-24T01:04:24;8.20;99.90
21387;DHT22;10854;45.922;6.716;2023-04-24T01:06:54;8.20;99.90
21387;DHT22;10854;45.922;6.716;2023-04-24T01:09:43;8.20;99.90
21387;DHT22;10854;45.922;6.716;2023-04-24T01:12:15;8.20;99.90
21387;DHT22;10854;45.922;6.716;2023-04-24T01:14:46;8.20;99.90
21387;DHT22;10854;45.922;6.716;2023-04-24T01:17:18;8.20;99.90
21387;DHT22;10854;45.922;6.716;2023-04-24T01:19:46;8.20;99.90
21387;DHT22;10854;45.922;6.716;2023-04-24T01:22:35;8.20;99.90
21387;DHT22;10854;45.922;6.716;2023-04-24T01:25:23;8.20;99.90
21387;DHT22;10854;45.922;6.716;2023-04-24T01:27:59;8.20;99.90
21387;DHT22;10854;45.922;6.716;2023-04-24T01:30:33;8.20;99.90
21387;DHT22;10854;45.922;6.716;2023-04-24T01:33:12;8.20;99.90
21387;DHT22;10854;45.922;6.716;2023-04-24T01:35:43;8.20;99.90
21387;DHT22;10854;45.922;6.716;2023-04-24T01:38:27;8.20;99.90
21387;DHT22;10854;45.922;6.716;2023-04-24T01:41:24;8.20;99.90
21387;DHT22;10854;45.922;6.716;2023-04-24T01:43:53;8.20;99.90
21387;DHT22;10854;45.922;6.716;2023-04-24T01:46:24;8.20;99.90
21387;DHT22;10854;45.922;6.716;2023-04-24T01:48:53;8.20;99.90
21387;DHT22;10854;45.922;6.716;2023-04-24T01:51:29;8.20;99.90
21387;DHT22;10854;45.922;6.716;2023-04-24T01:53:58;8.20;99.90
21387;DHT22;10854;45.922;6.716;2023-04-24T01:56:30;8.20;99.90
21387;DHT22;10854;45.922;6.716;2023-04-24T01:59:25;8.20;99.90
21387;DHT22;10854;45.922;6.716;2023-04-24T02:01:56;8.20;99.90
21387;DHT22;10854;45.922;6.716;2023-04-24T02:05:03;8.20;99.90
21387;DHT22;10854;45.922;6.716;2023-04-24T02:07:43;8.20;99.90
21387;DHT22;10854;45.922;6.716;2023-04-24T02:10:12;8.20;99.90
21387;DHT22;10854;45.922;6.716;2023-04-24T02:12:45;8.20;99.90
21387;DHT22;10854;45.922;6.716;2023-04-24T02:15:15;8.20;99.90
21387;DHT22;10854;45.922;6.716;2023-04-24T02:17:52;8.20;99.90
21387;DHT22;10854;45.922;6.716;2023-04-24T02:20:40;8.20;99.90
21387;DHT22;10854;45.922;6.716;2023-04-24T02:23:18;8.20;99.90
21387;DHT22;10854;45.922;6.716;2023-04-24T02:25:53;8.20;99.90
21387;DHT22;10854;45.922;6.716;2023-04-24T02:28:21;8.20;99.90
21387;DHT22;10854;45.922;6.716;2023-04-24T02:30:50;8.20;99.90
21387;DHT22;10854;45.922;6.716;2023-04-24T02:33:18;8.20;99.90
21387;DHT22;10854;45.922;6.716;2023-04-24T02:35:46;8.20;99.90
21387;DHT22;10854;45.922;6.716;2023-04-24T02:38:14;8.20;99.90
21387;DHT22;10854;45.922;6.716;2023-04-24T02:40:43;8.20;99.90
21387;DHT22;10854;45.922;6.716;2023-04-24T02:43:11;8.20;99.90
21387;DHT22;10854;45.922;6.716;2023-04-24T02:45:39;8.20;99.90
21387;DHT22;10854;45.922;6.716;2023-04-24T02:48:08;8.20;99.90
21387;DHT22;10854;45.922;6.716;2023-04-24T02:50:37;8.30;99.90
21387;DHT22;10854;45.922;6.716;2023-04-24T02:53:05;8.20;99.90
21387;DHT22;10854;45.922;6.716;2023-04-24T02:55:33;8.30;99.90
21387;DHT22;10854;45.922;6.716;2023-04-24T02:58:02;8.30;99.90
21387;DHT22;10854;45.922;6.716;2023-04-24T03:00:32;8.30;99.90
21387;DHT22;10854;45.922;6.716;2023-04-24T03:03:01;8.30;99.90
21387;DHT22;10854;45.922;6.716;2023-04-24T03:05:29;8.20;99.90
21387;DHT22;10854;45.922;6.716;2023-04-24T03:07:59;8.20;99.90
21387;DHT22;10854;45.922;6.716;2023-04-24T03:10:28;8.20;99.90
21387;DHT22;10854;45.922;6.716;2023-04-24T03:12:57;8.20;99.90
21387;DHT22;10854;45.922;6.716;2023-04-24T03:15:26;8.20;99.90
21387;DHT22;10854;45.922;6.716;2023-04-24T03:17:55;8.20;99.90
21387;DHT22;10854;45.922;6.716;2023-04-24T03:20:24;8.20;99.90
21387;DHT22;10854;45.922;6.716;2023-04-24T03:22:52;8.10;99.90
21387;DHT22;10854;45.922;6.716;2023-04-24T03:25:22;8.00;99.90
21387;DHT22;10854;45.922;6.716;2023-04-24T03:27:51;8.00;99.90
21387;DHT22;10854;45.922;6.716;2023-04-24T03:30:19;8.00;99.90
21387;DHT22;10854;45.922;6.716;2023-04-24T03:32:47;7.90;99.90
21387;DHT22;10854;45.922;6.716;2023-04-24T03:35:16;8.00;99.90
21387;DHT22;10854;45.922;6.716;2023-04-24T03:37:44;7.90;99.90
21387;DHT22;10854;45.922;6.716;2023-04-24T03:40:13;7.90;99.90
21387;DHT22;10854;45.922;6.716;2023-04-24T03:42:41;7.90;99.90
21387;DHT22;10854;45.922;6.716;2023-04-24T03:45:10;7.90;99.90
21387;DHT22;10854;45.922;6.716;2023-04-24T03:47:38;7.90;99.90
21387;DHT22;10854;45.922;6.716;2023-04-24T03:50:07;7.90;99.90
21387;DHT22;10854;45.922;6.716;2023-04-24T03:52:36;7.90;99.90
21387;DHT22;10854;45.922;6.716;2023-04-24T03:55:06;7.80;99.90
21387;DHT22;10854;45.922;6.716;2023-04-24T03:57:34;7.80;99.90
21387;DHT22;10854;45.922;6.716;2023-04-24T04:00:05;7.80;99.90
21387;DHT22;10854;45.922;6.716;2023-04-24T04:02:34;7.70;99.90
21387;DHT22;10854;45.922;6.716;2023-04-24T04:05:03;7.70;99.90
21387;DHT22;10854;45.922;6.716;2023-04-24T04:07:34;7.60;99.90
21387;DHT22;10854;45.922;6.716;2023-04-24T04:10:03;7.60;99.90
21387;DHT22;10854;45.922;6.716;2023-04-24T04:12:33;7.60;99.90
21387;DHT22;10854;45.922;6.716;2023-04-24T04:15:01;7.60;99.90
21387;DHT22;10854;45.922;6.716;2023-04-24T04:17:31;7.60;99.90
21387;DHT22;10854;45.922;6.716;2023-04-24T04:20:01;7.60;99.90
21387;DHT22;10854;45.922;6.716;2023-04-24T04:22:33;7.50;99.90
21387;DHT22;10854;45.922;6.716;2023-04-24T04:25:03;7.50;99.90
21387;DHT22;10854;45.922;6.716;2023-04-24T04:27:33;7.60;99.90
21387;DHT22;10854;45.922;6.716;2023-04-24T04:30:02;7.50;99.90
21387;DHT22;10854;45.922;6.716;2023-04-24T04:32:32;7.50;99.90
21387;DHT22;10854;45.922;6.716;2023-04-24T04:35:04;7.60;99.90
21387;DHT22;10854;45.922;6.716;2023-04-24T04:37:35;7.60;99.90
21387;DHT22;10854;45.922;6.716;2023-04-24T04:40:05;7.60;99.90
21387;DHT22;10854;45.922;6.716;2023-04-24T04:42:35;7.60;99.90
21387;DHT22;10854;45.922;6.716;2023-04-24T04:45:04;7.60;99.90
21387;DHT22;10854;45.922;6.716;2023-04-24T04:47:32;7.60;99.90
21387;DHT22;10854;45.922;6.716;2023-04-24T04:50:01;7.60;99.90
21387;DHT22;10854;45.922;6.716;2023-04-24T04:52:31;7.60;99.90
21387;DHT22;10854;45.922;6.716;2023-04-24T04:54:59;7.70;99.90
21387;DHT22;10854;45.922;6.716;2023-04-24T04:57:28;7.70;99.90
21387;DHT22;10854;45.922;6.716;2023-04-24T04:59:56;7.70;99.90
21387;DHT22;10854;45.922;6.716;2023-04-24T05:02:25;7.70;99.90
21387;DHT22;10854;45.922;6.716;2023-04-24T05:04:53;7.70;99.90
21387;DHT22;10854;45.922;6.716;2023-04-24T05:07:22;7.70;99.90
21387;DHT22;10854;45.922;6.716;2023-04-24T05:09:50;7.70;99.90
21387;DHT22;10854;45.922;6.716;2023-04-24T05:12:20;7.60;99.90
21387;DHT22;10854;45.922;6.716;2023-04-24T05:14:48;7.60;99.90
21387;DHT22;10854;45.922;6.716;2023-04-24T05:17:17;7.60;99.90
21387;DHT22;10854;45.922;6.716;2023-04-24T05:19:46;7.70;99.90
21387;DHT22;10854;45.922;6.716;2023-04-24T05:22:16;7.70;99.90
21387;DHT22;10854;45.922;6.716;2023-04-24T05:24:46;7.70;99.90
21387;DHT22;10854;45.922;6.716;2023-04-24T05:27:15;7.70;99.90
21387;DHT22;10854;45.922;6.716;2023-04-24T05:29:43;7.70;99.90
21387;DHT22;10854;45.922;6.716;2023-04-24T05:32:12;7.70;99.90
21387;DHT22;10854;45.922;6.716;2023-04-24T05:34:40;7.80;99.90
21387;DHT22;10854;45.922;6.716;2023-04-24T05:37:08;7.80;99.90
21387;DHT22;10854;45.922;6.716;2023-04-24T05:39:38;7.80;99.90
21387;DHT22;10854;45.922;6.716;2023-04-24T05:42:10;7.80;99.90
21387;DHT22;10854;45.922;6.716;2023-04-24T05:44:39;7.80;99.90
21387;DHT22;10854;45.922;6.716;2023-04-24T05:47:08;7.80;99.90
21387;DHT22;10854;45.922;6.716;2023-04-24T05:49:36;7.80;99.90
21387;DHT22;10854;45.922;6.716;2023-04-24T05:52:04;7.90;99.90
21387;DHT22;10854;45.922;6.716;2023-04-24T05:54:35;7.90;99.90
21387;DHT22;10854;45.922;6.716;2023-04-24T05:57:03;7.90;99.90
21387;DHT22;10854;45.922;6.716;2023-04-24T05:59:37;7.90;99.90
21387;DHT22;10854;45.922;6.716;2023-04-24T06:02:10;7.90;99.90
21387;DHT22;10854;45.922;6.716;2023-04-24T06:04:39;7.90;99.90
21387;DHT22;10854;45.922;6.716;2023-04-24T06:07:08;7.90;99.90
21387;DHT22;10854;45.922;6.716;2023-04-24T06:09:53;8.00;99.90
21387;DHT22;10854;45.922;6.716;2023-04-24T06:12:28;8.00;99.90
21387;DHT22;10854;45.922;6.716;2023-04-24T06:15:18;8.10;99.90
21387;DHT22;10854;45.922;6.716;2023-04-24T06:17:48;8.10;99.90
21387;DHT22;10854;45.922;6.716;2023-04-24T06:20:35;8.10;99.90
21387;DHT22;10854;45.922;6.716;2023-04-24T06:23:21;8.10;99.90
21387;DHT22;10854;45.922;6.716;2023-04-24T06:25:50;8.10;99.90
21387;DHT22;10854;45.922;6.716;2023-04-24T06:28:19;8.10;99.90
21387;DHT22;10854;45.922;6.716;2023-04-24T06:30:47;8.00;99.90
21387;DHT22;10854;45.922;6.716;2023-04-24T06:33:17;8.00;99.90
21387;DHT22;10854;45.922;6.716;2023-04-24T06:35:47;8.00;99.90
21387;DHT22;10854;45.922;6.716;2023-04-24T06:38:16;8.10;99.90
21387;DHT22;10854;45.922;6.716;2023-04-24T06:40:45;8.10;99.90
21387;DHT22;10854;45.922;6.716;2023-04-24T06:43:14;8.10;99.90
21387;DHT22;10854;45.922;6.716;2023-04-24T06:45:42;8.10;99.90
21387;DHT22;10854;45.922;6.716;2023-04-24T06:48:12;8.20;99.90
21387;DHT22;10854;45.922;6.716;2023-04-24T06:50:42;8.20;99.90
21387;DHT22;10854;45.922;6.716;2023-04-24T06:53:11;8.30;99.90
21387;DHT22;10854;45.922;6.716;2023-04-24T06:55:42;8.30;99.90
21387;DHT22;10854;45.922;6.716;2023-04-24T06:58:12;8.30;99.90
21387;DHT22;10854;45.922;6.716;2023-04-24T07:00:43;8.30;99.90
21387;DHT22;10854;45.922;6.716;2023-04-24T07:03:12;8.40;99.90
21387;DHT22;10854;45.922;6.716;2023-04-24T07:05:41;8.40;99.90
21387;DHT22;10854;45.922;6.716;2023-04-24T07:08:10;8.40;99.90
21387;DHT22;10854;45.922;6.716;2023-04-24T07:10:39;8.40;99.90
21387;DHT22;10854;45.922;6.716;2023-04-24T07:13:08;8.30;99.90
21387;DHT22;10854;45.922;6.716;2023-04-24T07:15:36;8.30;99.90
21387;DHT22;10854;45.922;6.716;2023-04-24T07:18:05;8.30;99.90
21387;DHT22;10854;45.922;6.716;2023-04-24T07:20:33;8.40;99.90
21387;DHT22;10854;45.922;6.716;2023-04-24T07:23:02;8.50;99.90
21387;DHT22;10854;45.922;6.716;2023-04-24T07:25:30;8.60;99.90
21387;DHT22;10854;45.922;6.716;2023-04-24T07:27:59;8.70;99.90
21387;DHT22;10854;45.922;6.716;2023-04-24T07:30:28;8.90;99.90
21387;DHT22;10854;45.922;6.716;2023-04-24T07:32:57;9.10;99.90
21387;DHT22;10854;45.922;6.716;2023-04-24T07:35:27;9.40;99.90
21387;DHT22;10854;45.922;6.716;2023-04-24T07:37:55;9.50;99.90
21387;DHT22;10854;45.922;6.716;2023-04-24T07:40:27;9.60;99.90
21387;DHT22;10854;45.922;6.716;2023-04-24T07:42:55;9.70;99.90
21387;DHT22;10854;45.922;6.716;2023-04-24T07:45:24;9.70;99.90
21387;DHT22;10854;45.922;6.716;2023-04-24T07:47:57;9.80;99.90
21387;DHT22;10854;45.922;6.716;2023-04-24T07:50:38;9.80;99.90
21387;DHT22;10854;45.922;6.716;2023-04-24T07:53:07;10.00;99.90
21387;DHT22;10854;45.922;6.716;2023-04-24T07:55:37;10.30;99.90
21387;DHT22;10854;45.922;6.716;2023-04-24T07:58:12;10.70;99.90
21387;DHT22;10854;45.922;6.716;2023-04-24T08:00:43;11.10;99.90
21387;DHT22;10854;45.922;6.716;2023-04-24T08:03:11;11.30;99.90
21387;DHT22;10854;45.922;6.716;2023-04-24T08:05:41;11.50;99.90
21387;DHT22;10854;45.922;6.716;2023-04-24T08:08:10;11.70;99.90
21387;DHT22;10854;45.922;6.716;2023-04-24T08:10:40;11.80;99.90
21387;DHT22;10854;45.922;6.716;2023-04-24T08:13:09;11.80;99.90
21387;DHT22;10854;45.922;6.716;2023-04-24T08:15:42;11.80;99.90
21387;DHT22;10854;45.922;6.716;2023-04-24T08:18:10;11.70;99.90
21387;DHT22;10854;45.922;6.716;2023-04-24T08:20:41;11.70;99.90
21387;DHT22;10854;45.922;6.716;2023-04-24T08:23:10;11.80;99.90
21387;DHT22;10854;45.922;6.716;2023-04-24T08:25:39;11.90;99.90
21387;DHT22;10854;45.922;6.716;2023-04-24T08:28:09;12.00;99.90
21387;DHT22;10854;45.922;6.716;2023-04-24T08:30:38;12.30;99.90
21387;DHT22;10854;45.922;6.716;2023-04-24T08:33:07;12.50;99.90
21387;DHT22;10854;45.922;6.716;2023-04-24T08:35:36;12.60;99.90
21387;DHT22;10854;45.922;6.716;2023-04-24T08:38:04;12.50;99.90
21387;DHT22;10854;45.922;6.716;2023-04-24T08:40:34;12.40;99.90
21387;DHT22;10854;45.922;6.716;2023-04-24T08:43:03;12.30;99.90
21387;DHT22;10854;45.922;6.716;2023-04-24T08:45:32;12.20;99.90
21387;DHT22;10854;45.922;6.716;2023-04-24T08:48:02;12.20;99.90
21387;DHT22;10854;45.922;6.716;2023-04-24T08:50:31;12.10;99.90
21387;DHT22;10854;45.922;6.716;2023-04-24T08:53:01;12.10;99.90
21387;DHT22;10854;45.922;6.716;2023-04-24T08:55:32;12.00;99.90
21387;DHT22;10854;45.922;6.716;2023-04-24T08:58:02;12.00;99.90
21387;DHT22;10854;45.922;6.716;2023-04-24T09:00:31;12.20;99.90
21387;DHT22;10854;45.922;6.716;2023-04-24T09:03:00;12.30;99.90
21387;DHT22;10854;45.922;6.716;2023-04-24T09:05:30;12.40;99.90
21387;DHT22;10854;45.922;6.716;2023-04-24T09:07:59;12.40;99.90
21387;DHT22;10854;45.922;6.716;2023-04-24T09:10:29;12.50;99.90
21387;DHT22;10854;45.922;6.716;2023-04-24T09:12:59;12.80;99.90
21387;DHT22;10854;45.922;6.716;2023-04-24T09:15:30;13.10;99.90
21387;DHT22;10854;45.922;6.716;2023-04-24T09:17:58;13.40;99.50
21387;DHT22;10854;45.922;6.716;2023-04-24T09:20:27;13.60;98.50
21387;DHT22;10854;45.922;6.716;2023-04-24T09:22:57;13.90;98.50
21387;DHT22;10854;45.922;6.716;2023-04-24T09:25:32;14.20;97.20
21387;DHT22;10854;45.922;6.716;2023-04-24T09:28:02;14.50;97.50
21387;DHT22;10854;45.922;6.716;2023-04-24T09:30:31;15.00;96.80
21387;DHT22;10854;45.922;6.716;2023-04-24T09:33:18;15.60;94.80
21387;DHT22;10854;45.922;6.716;2023-04-24T09:35:51;16.10;90.80
21387;DHT22;10854;45.922;6.716;2023-04-24T09:38:37;16.20;88.80
21387;DHT22;10854;45.922;6.716;2023-04-24T09:41:07;16.10;86.90
21387;DHT22;10854;45.922;6.716;2023-04-24T09:43:36;15.80;84.90
21387;DHT22;10854;45.922;6.716;2023-04-24T09:46:07;15.30;84.90
21387;DHT22;10854;45.922;6.716;2023-04-24T09:48:37;14.80;85.90
21387;DHT22;10854;45.922;6.716;2023-04-24T09:51:07;14.20;87.10
21387;DHT22;10854;45.922;6.716;2023-04-24T09:53:38;13.80;88.90
21387;DHT22;10854;45.922;6.716;2023-04-24T09:56:10;13.40;90.50
21387;DHT22;10854;45.922;6.716;2023-04-24T09:58:42;13.10;91.70
21387;DHT22;10854;45.922;6.716;2023-04-24T10:01:10;12.90;92.70
21387;DHT22;10854;45.922;6.716;2023-04-24T10:03:42;13.00;93.30
21387;DHT22;10854;45.922;6.716;2023-04-24T10:06:12;13.00;92.90
21387;DHT22;10854;45.922;6.716;2023-04-24T10:08:42;13.10;93.40
21387;DHT22;10854;45.922;6.716;2023-04-24T10:11:11;13.10;93.00
21387;DHT22;10854;45.922;6.716;2023-04-24T10:13:42;13.00;92.80
21387;DHT22;10854;45.922;6.716;2023-04-24T10:16:11;12.80;92.70
21387;DHT22;10854;45.922;6.716;2023-04-24T10:18:40;12.50;92.70
21387;DHT22;10854;45.922;6.716;2023-04-24T10:21:10;12.40;94.00
21387;DHT22;10854;45.922;6.716;2023-04-24T10:23:38;12.60;96.20
21387;DHT22;10854;45.922;6.716;2023-04-24T10:26:09;12.80;98.80
21387;DHT22;10854;45.922;6.716;2023-04-24T10:28:39;13.10;99.90
21387;DHT22;10854;45.922;6.716;2023-04-24T10:31:10;13.50;99.90
21387;DHT22;10854;45.922;6.716;2023-04-24T10:33:42;14.00;99.10
21387;DHT22;10854;45.922;6.716;2023-04-24T10:36:13;14.40;97.70
21387;DHT22;10854;45.922;6.716;2023-04-24T10:38:43;15.00;97.10
21387;DHT22;10854;45.922;6.716;2023-04-24T10:41:18;15.70;94.40
21387;DHT22;10854;45.922;6.716;2023-04-24T10:44:07;16.50;87.30
21387;DHT22;10854;45.922;6.716;2023-04-24T10:46:38;17.30;83.40
21387;DHT22;10854;45.922;6.716;2023-04-24T10:49:12;18.00;78.70
21387;DHT22;10854;45.922;6.716;2023-04-24T10:51:49;18.80;75.90
21387;DHT22;10854;45.922;6.716;2023-04-24T10:54:35;19.40;73.40
21387;DHT22;10854;45.922;6.716;2023-04-24T11:00:14;20.20;64.10
21387;DHT22;10854;45.922;6.716;2023-04-24T11:02:46;20.30;64.00
21387;DHT22;10854;45.922;6.716;2023-04-24T11:05:19;20.60;64.30
21387;DHT22;10854;45.922;6.716;2023-04-24T11:08:12;20.90;65.00
21387;DHT22;10854;45.922;6.716;2023-04-24T11:10:45;21.20;60.10
21387;DHT22;10854;45.922;6.716;2023-04-24T11:13:17;21.50;60.40
21387;DHT22;10854;45.922;6.716;2023-04-24T11:16:15;21.50;58.70
21387;DHT22;10854;45.922;6.716;2023-04-24T11:18:49;21.80;58.50
21387;DHT22;10854;45.922;6.716;2023-04-24T11:21:22;21.90;57.20
21387;DHT22;10854;45.922;6.716;2023-04-24T11:23:52;22.10;57.10
21387;DHT22;10854;45.922;6.716;2023-04-24T11:26:23;22.60;57.60
21387;DHT22;10854;45.922;6.716;2023-04-24T11:29:07;23.10;57.30
21387;DHT22;10854;45.922;6.716;2023-04-24T11:31:40;23.80;55.50
21387;DHT22;10854;45.922;6.716;2023-04-24T11:34:11;24.20;55.60
21387;DHT22;10854;45.922;6.716;2023-04-24T11:36:44;24.30;52.40
21387;DHT22;10854;45.922;6.716;2023-04-24T11:39:13;24.10;51.20
21387;DHT22;10854;45.922;6.716;2023-04-24T11:41:41;23.80;49.30
21387;DHT22;10854;45.922;6.716;2023-04-24T11:44:11;23.50;49.90
21387;DHT22;10854;45.922;6.716;2023-04-24T11:46:40;23.20;48.30
21387;DHT22;10854;45.922;6.716;2023-04-24T11:49:08;23.20;49.90
21387;DHT22;10854;45.922;6.716;2023-04-24T11:51:37;23.30;50.80
21387;DHT22;10854;45.922;6.716;2023-04-24T11:54:14;23.60;51.80
21387;DHT22;10854;45.922;6.716;2023-04-24T11:56:52;24.00;51.90
21387;DHT22;10854;45.922;6.716;2023-04-24T11:59:20;24.30;49.50
21387;DHT22;10854;45.922;6.716;2023-04-24T12:01:53;24.20;49.10
21387;DHT22;10854;45.922;6.716;2023-04-24T12:04:22;23.90;48.20
21387;DHT22;10854;45.922;6.716;2023-04-24T12:07:02;23.70;48.10
21387;DHT22;10854;45.922;6.716;2023-04-24T12:09:46;23.40;48.50
21387;DHT22;10854;45.922;6.716;2023-04-24T12:12:25;23.20;48.50
21387;DHT22;10854;45.922;6.716;2023-04-24T12:14:58;22.70;49.30
21387;DHT22;10854;45.922;6.716;2023-04-24T12:17:33;22.60;49.50
21387;DHT22;10854;45.922;6.716;2023-04-24T12:20:07;22.70;48.10
21387;DHT22;10854;45.922;6.716;2023-04-24T12:22:59;22.40;47.30
21387;DHT22;10854;45.922;6.716;2023-04-24T12:25:33;21.70;47.60
21387;DHT22;10854;45.922;6.716;2023-04-24T12:30:35;20.80;50.00
21387;DHT22;10854;45.922;6.716;2023-04-24T12:33:09;20.30;49.90
21387;DHT22;10854;45.922;6.716;2023-04-24T12:35:41;19.80;50.60
21387;DHT22;10854;45.922;6.716;2023-04-24T12:38:12;19.60;50.70
21387;DHT22;10854;45.922;6.716;2023-04-24T12:40:44;19.90;51.10
21387;DHT22;10854;45.922;6.716;2023-04-24T12:43:20;20.30;51.00
21387;DHT22;10854;45.922;6.716;2023-04-24T12:45:49;21.00;49.80
21387;DHT22;10854;45.922;6.716;2023-04-24T12:48:20;21.50;47.60
21387;DHT22;10854;45.922;6.716;2023-04-24T12:50:52;21.70;46.90
21387;DHT22;10854;45.922;6.716;2023-04-24T12:53:20;22.10;46.30
21387;DHT22;10854;45.922;6.716;2023-04-24T12:55:50;22.30;45.50
21387;DHT22;10854;45.922;6.716;2023-04-24T12:58:20;22.50;44.70
21387;DHT22;10854;45.922;6.716;2023-04-24T13:00:49;22.60;44.20
21387;DHT22;10854;45.922;6.716;2023-04-24T13:03:19;22.80;43.00
21387;DHT22;10854;45.922;6.716;2023-04-24T13:05:48;22.90;41.50
21387;DHT22;10854;45.922;6.716;2023-04-24T13:08:17;23.10;41.30
21387;DHT22;10854;45.922;6.716;2023-04-24T13:10:45;23.10;39.90
21387;DHT22;10854;45.922;6.716;2023-04-24T13:13:14;23.10;39.70
21387;DHT22;10854;45.922;6.716;2023-04-24T13:15:42;23.20;40.90
21387;DHT22;10854;45.922;6.716;2023-04-24T13:18:11;23.40;39.80
21387;DHT22;10854;45.922;6.716;2023-04-24T13:20:39;23.30;37.80
21387;DHT22;10854;45.922;6.716;2023-04-24T13:23:09;23.20;37.20
21387;DHT22;10854;45.922;6.716;2023-04-24T13:25:38;23.20;36.90
21387;DHT22;10854;45.922;6.716;2023-04-24T13:28:06;23.20;37.10
21387;DHT22;10854;45.922;6.716;2023-04-24T13:30:35;23.30;37.50
21387;DHT22;10854;45.922;6.716;2023-04-24T13:33:04;23.40;37.60
21387;DHT22;10854;45.922;6.716;2023-04-24T13:35:32;23.50;36.60
21387;DHT22;10854;45.922;6.716;2023-04-24T13:38:00;23.50;36.70
21387;DHT22;10854;45.922;6.716;2023-04-24T13:40:34;23.60;36.90
21387;DHT22;10854;45.922;6.716;2023-04-24T13:43:02;23.60;38.20
21387;DHT22;10854;45.922;6.716;2023-04-24T13:45:30;23.80;39.00
21387;DHT22;10854;45.922;6.716;2023-04-24T13:47:59;24.00;38.90
21387;DHT22;10854;45.922;6.716;2023-04-24T13:50:28;24.00;37.80
21387;DHT22;10854;45.922;6.716;2023-04-24T13:52:56;24.00;38.00
21387;DHT22;10854;45.922;6.716;2023-04-24T13:55:25;24.10;38.80
21387;DHT22;10854;45.922;6.716;2023-04-24T13:57:54;24.00;38.30
21387;DHT22;10854;45.922;6.716;2023-04-24T14:00:22;23.60;38.50
21387;DHT22;10854;45.922;6.716;2023-04-24T14:02:51;23.30;38.70
21387;DHT22;10854;45.922;6.716;2023-04-24T14:05:19;23.30;37.90
21387;DHT22;10854;45.922;6.716;2023-04-24T14:07:49;23.50;37.70
21387;DHT22;10854;45.922;6.716;2023-04-24T14:10:18;23.50;37.60
21387;DHT22;10854;45.922;6.716;2023-04-24T14:12:47;23.60;37.10
21387;DHT22;10854;45.922;6.716;2023-04-24T14:15:15;23.80;37.40
21387;DHT22;10854;45.922;6.716;2023-04-24T14:17:44;23.90;36.80
21387;DHT22;10854;45.922;6.716;2023-04-24T14:20:13;24.00;36.90
21387;DHT22;10854;45.922;6.716;2023-04-24T14:22:41;23.90;37.20
21387;DHT22;10854;45.922;6.716;2023-04-24T14:25:09;24.00;37.50
21387;DHT22;10854;45.922;6.716;2023-04-24T14:27:38;24.00;37.80
21387;DHT22;10854;45.922;6.716;2023-04-24T14:30:08;24.20;38.20
21387;DHT22;10854;45.922;6.716;2023-04-24T14:32:38;24.30;38.30
21387;DHT22;10854;45.922;6.716;2023-04-24T14:35:07;24.30;38.30
21387;DHT22;10854;45.922;6.716;2023-04-24T14:37:36;24.40;38.40
21387;DHT22;10854;45.922;6.716;2023-04-24T14:40:05;24.20;37.50
21387;DHT22;10854;45.922;6.716;2023-04-24T14:42:38;23.70;37.50
21387;DHT22;10854;45.922;6.716;2023-04-24T14:45:06;23.30;37.50
21387;DHT22;10854;45.922;6.716;2023-04-24T14:47:37;22.70;37.30
21387;DHT22;10854;45.922;6.716;2023-04-24T14:50:06;22.20;37.90
21387;DHT22;10854;45.922;6.716;2023-04-24T14:52:35;21.80;38.20
21387;DHT22;10854;45.922;6.716;2023-04-24T14:55:05;21.30;37.80
21387;DHT22;10854;45.922;6.716;2023-04-24T14:57:36;20.70;38.80
21387;DHT22;10854;45.922;6.716;2023-04-24T15:00:06;20.30;39.60
21387;DHT22;10854;45.922;6.716;2023-04-24T15:02:36;20.10;39.40
21387;DHT22;10854;45.922;6.716;2023-04-24T15:05:09;20.00;40.30
21387;DHT22;10854;45.922;6.716;2023-04-24T15:07:38;19.90;41.00
21387;DHT22;10854;45.922;6.716;2023-04-24T15:10:09;19.80;42.10
21387;DHT22;10854;45.922;6.716;2023-04-24T15:12:44;19.80;42.60
21387;DHT22;10854;45.922;6.716;2023-04-24T15:15:14;19.80;42.70
21387;DHT22;10854;45.922;6.716;2023-04-24T15:17:56;19.90;41.90
21387;DHT22;10854;45.922;6.716;2023-04-24T15:20:25;20.10;41.10
21387;DHT22;10854;45.922;6.716;2023-04-24T15:22:53;20.20;40.40
21387;DHT22;10854;45.922;6.716;2023-04-24T15:25:21;20.00;40.20
21387;DHT22;10854;45.922;6.716;2023-04-24T15:27:50;19.70;40.90
21387;DHT22;10854;45.922;6.716;2023-04-24T15:30:19;19.30;41.60
21387;DHT22;10854;45.922;6.716;2023-04-24T15:32:47;19.00;42.50
21387;DHT22;10854;45.922;6.716;2023-04-24T15:35:16;18.90;43.40
21387;DHT22;10854;45.922;6.716;2023-04-24T15:37:45;18.80;43.90
21387;DHT22;10854;45.922;6.716;2023-04-24T15:40:14;18.60;43.50
21387;DHT22;10854;45.922;6.716;2023-04-24T15:42:44;18.50;43.70
21387;DHT22;10854;45.922;6.716;2023-04-24T15:45:15;18.60;44.40
21387;DHT22;10854;45.922;6.716;2023-04-24T15:47:44;18.70;43.60
21387;DHT22;10854;45.922;6.716;2023-04-24T15:50:16;18.50;43.80
21387;DHT22;10854;45.922;6.716;2023-04-24T15:52:46;18.40;44.30
21387;DHT22;10854;45.922;6.716;2023-04-24T15:55:14;18.20;44.40
21387;DHT22;10854;45.922;6.716;2023-04-24T15:57:43;18.10;44.90
21387;DHT22;10854;45.922;6.716;2023-04-24T16:00:12;18.10;45.70
21387;DHT22;10854;45.922;6.716;2023-04-24T16:02:41;18.10;45.90
21387;DHT22;10854;45.922;6.716;2023-04-24T16:05:09;18.00;45.60
21387;DHT22;10854;45.922;6.716;2023-04-24T16:07:38;17.90;45.60